Concord, New Hampshire
Current Conditions -  °F | °C
As of 3:51 AM on Monday 20 Oct 2014 (Local Time) from KCON Reporting Station
Clear Clear  
Wind Chill: 30°   Ceiling: Unl
Heat Index: 35°   Visibility: 10mi
Dew Point: 23°   Wind: 6mph
Humidity: 61%   Direction: 290°WNW
Pressure: 29.98"   Gusts: NA
Location:  43.21°N, 71.54°W
Report Text: KCON 200751Z AUTO 29005KT 10SM CLR 02/M05 A2998 RMK AO2 SLP154 T00171050
Loading
Personal Weather Stations






























Interactive Weather Map
Tropical Storm Tracking
New forecast layout! Learn more

10-Day Weather Forecast

Advertisements
Track Severe Weather on mobile